sensor_id;sensor_type;location;lat;lon;timestamp;temperature;humidity
26687;DHT22;14298;50.900;4.648;2023-02-11T00:01:37;6.40;97.10
26687;DHT22;14298;50.900;4.648;2023-02-11T00:04:07;6.40;97.10
26687;DHT22;14298;50.900;4.648;2023-02-11T00:06:35;6.30;97.10
26687;DHT22;14298;50.900;4.648;2023-02-11T00:09:04;6.30;97.10
26687;DHT22;14298;50.900;4.648;2023-02-11T00:11:33;6.20;97.10
26687;DHT22;14298;50.900;4.648;2023-02-11T00:14:04;6.20;97.10
26687;DHT22;14298;50.900;4.648;2023-02-11T00:16:34;6.20;97.10
26687;DHT22;14298;50.900;4.648;2023-02-11T00:19:03;6.20;97.10
26687;DHT22;14298;50.900;4.648;2023-02-11T00:21:33;6.10;97.10
26687;DHT22;14298;50.900;4.648;2023-02-11T00:24:01;6.10;97.10
26687;DHT22;14298;50.900;4.648;2023-02-11T00:26:34;6.00;97.10
26687;DHT22;14298;50.900;4.648;2023-02-11T00:29:03;6.00;97.10
26687;DHT22;14298;50.900;4.648;2023-02-11T00:31:32;6.00;97.10
26687;DHT22;14298;50.900;4.648;2023-02-11T00:34:01;6.00;97.10
26687;DHT22;14298;50.900;4.648;2023-02-11T00:36:29;6.00;97.10
26687;DHT22;14298;50.900;4.648;2023-02-11T00:38:59;6.00;97.10
26687;DHT22;14298;50.900;4.648;2023-02-11T00:41:28;5.90;97.10
26687;DHT22;14298;50.900;4.648;2023-02-11T00:43:56;5.90;97.10
26687;DHT22;14298;50.900;4.648;2023-02-11T00:46:47;5.90;97.10
26687;DHT22;14298;50.900;4.648;2023-02-11T00:49:15;5.80;97.10
26687;DHT22;14298;50.900;4.648;2023-02-11T00:51:49;5.80;97.10
26687;DHT22;14298;50.900;4.648;2023-02-11T00:54:13;5.80;97.10
26687;DHT22;14298;50.900;4.648;2023-02-11T00:56:42;5.80;97.10
26687;DHT22;14298;50.900;4.648;2023-02-11T00:59:11;5.80;97.10
26687;DHT22;14298;50.900;4.648;2023-02-11T01:01:39;5.80;97.10
26687;DHT22;14298;50.900;4.648;2023-02-11T01:04:08;5.80;97.10
26687;DHT22;14298;50.900;4.648;2023-02-11T01:06:36;5.80;97.10
26687;DHT22;14298;50.900;4.648;2023-02-11T01:09:04;5.80;97.10
26687;DHT22;14298;50.900;4.648;2023-02-11T01:11:33;5.80;97.10
26687;DHT22;14298;50.900;4.648;2023-02-11T01:14:02;5.90;97.10
26687;DHT22;14298;50.900;4.648;2023-02-11T01:16:30;5.90;97.10
26687;DHT22;14298;50.900;4.648;2023-02-11T01:18:58;5.90;97.10
26687;DHT22;14298;50.900;4.648;2023-02-11T01:21:27;6.00;97.10
26687;DHT22;14298;50.900;4.648;2023-02-11T01:23:55;6.00;97.10
26687;DHT22;14298;50.900;4.648;2023-02-11T01:26:24;6.00;97.10
26687;DHT22;14298;50.900;4.648;2023-02-11T01:28:52;6.00;97.10
26687;DHT22;14298;50.900;4.648;2023-02-11T01:31:21;6.00;97.10
26687;DHT22;14298;50.900;4.648;2023-02-11T01:33:51;6.00;97.10
26687;DHT22;14298;50.900;4.648;2023-02-11T01:36:19;6.00;97.10
26687;DHT22;14298;50.900;4.648;2023-02-11T01:38:49;6.00;97.10
26687;DHT22;14298;50.900;4.648;2023-02-11T01:41:17;6.00;97.10
26687;DHT22;14298;50.900;4.648;2023-02-11T01:43:48;5.90;97.10
26687;DHT22;14298;50.900;4.648;2023-02-11T01:49:26;5.90;97.10
26687;DHT22;14298;50.900;4.648;2023-02-11T01:52:08;5.80;97.10
26687;DHT22;14298;50.900;4.648;2023-02-11T01:54:45;5.80;97.10
26687;DHT22;14298;50.900;4.648;2023-02-11T01:57:30;5.80;97.10
26687;DHT22;14298;50.900;4.648;2023-02-11T02:00:14;5.80;97.10
26687;DHT22;14298;50.900;4.648;2023-02-11T02:08:20;6.00;97.10
26687;DHT22;14298;50.900;4.648;2023-02-11T02:10:52;6.10;97.10
26687;DHT22;14298;50.900;4.648;2023-02-11T02:13:24;6.10;97.10
26687;DHT22;14298;50.900;4.648;2023-02-11T02:15:54;6.20;97.10
26687;DHT22;14298;50.900;4.648;2023-02-11T02:18:47;6.30;97.10
26687;DHT22;14298;50.900;4.648;2023-02-11T02:24:21;6.30;97.10
26687;DHT22;14298;50.900;4.648;2023-02-11T02:38:37;6.40;97.10
26687;DHT22;14298;50.900;4.648;2023-02-11T02:41:17;6.40;97.10
26687;DHT22;14298;50.900;4.648;2023-02-11T02:43:47;6.50;97.10
26687;DHT22;14298;50.900;4.648;2023-02-11T02:46:21;6.50;97.10
26687;DHT22;14298;50.900;4.648;2023-02-11T02:48:50;6.50;97.10
26687;DHT22;14298;50.900;4.648;2023-02-11T02:54:48;6.50;97.10
26687;DHT22;14298;50.900;4.648;2023-02-11T03:00:16;6.50;97.10
26687;DHT22;14298;50.900;4.648;2023-02-11T03:03:18;6.50;97.10
26687;DHT22;14298;50.900;4.648;2023-02-11T03:08:41;6.60;97.10
26687;DHT22;14298;50.900;4.648;2023-02-11T03:11:10;6.60;97.10
26687;DHT22;14298;50.900;4.648;2023-02-11T03:13:40;6.60;97.10
26687;DHT22;14298;50.900;4.648;2023-02-11T03:16:19;6.60;97.10
26687;DHT22;14298;50.900;4.648;2023-02-11T03:18:50;6.70;97.10
26687;DHT22;14298;50.900;4.648;2023-02-11T03:21:19;6.70;97.10
26687;DHT22;14298;50.900;4.648;2023-02-11T03:23:51;6.60;97.10
26687;DHT22;14298;50.900;4.648;2023-02-11T03:26:29;6.60;97.10
26687;DHT22;14298;50.900;4.648;2023-02-11T03:32:14;6.70;97.10
26687;DHT22;14298;50.900;4.648;2023-02-11T03:34:57;6.70;97.10
26687;DHT22;14298;50.900;4.648;2023-02-11T03:37:47;6.70;97.10
26687;DHT22;14298;50.900;4.648;2023-02-11T03:40:16;6.70;97.10
26687;DHT22;14298;50.900;4.648;2023-02-11T03:42:53;6.70;97.10
26687;DHT22;14298;50.900;4.648;2023-02-11T03:45:20;6.70;97.10
26687;DHT22;14298;50.900;4.648;2023-02-11T03:47:53;6.70;97.10
26687;DHT22;14298;50.900;4.648;2023-02-11T03:50:21;6.70;97.10
26687;DHT22;14298;50.900;4.648;2023-02-11T03:52:51;6.70;97.10
26687;DHT22;14298;50.900;4.648;2023-02-11T03:55:22;6.70;97.10
26687;DHT22;14298;50.900;4.648;2023-02-11T03:57:52;6.80;97.10
26687;DHT22;14298;50.900;4.648;2023-02-11T04:00:20;6.80;97.10
26687;DHT22;14298;50.900;4.648;2023-02-11T04:02:48;6.80;97.10
26687;DHT22;14298;50.900;4.648;2023-02-11T04:05:17;6.80;97.10
26687;DHT22;14298;50.900;4.648;2023-02-11T04:07:45;6.80;97.10
26687;DHT22;14298;50.900;4.648;2023-02-11T04:10:14;6.80;97.10
26687;DHT22;14298;50.900;4.648;2023-02-11T04:12:42;6.80;97.10
26687;DHT22;14298;50.900;4.648;2023-02-11T04:15:13;6.80;97.10
26687;DHT22;14298;50.900;4.648;2023-02-11T04:17:42;6.80;97.10
26687;DHT22;14298;50.900;4.648;2023-02-11T04:20:11;6.80;97.10
26687;DHT22;14298;50.900;4.648;2023-02-11T04:22:40;6.90;97.10
26687;DHT22;14298;50.900;4.648;2023-02-11T04:25:08;6.90;97.10
26687;DHT22;14298;50.900;4.648;2023-02-11T04:27:40;6.90;97.10
26687;DHT22;14298;50.900;4.648;2023-02-11T04:30:09;6.90;97.10
26687;DHT22;14298;50.900;4.648;2023-02-11T04:32:38;6.90;97.10
26687;DHT22;14298;50.900;4.648;2023-02-11T04:35:06;6.90;97.10
26687;DHT22;14298;50.900;4.648;2023-02-11T04:37:35;6.90;97.10
26687;DHT22;14298;50.900;4.648;2023-02-11T04:40:03;6.90;97.10
26687;DHT22;14298;50.900;4.648;2023-02-11T04:42:32;6.90;97.10
26687;DHT22;14298;50.900;4.648;2023-02-11T04:45:00;6.90;97.10
26687;DHT22;14298;50.900;4.648;2023-02-11T04:47:28;6.90;97.10
26687;DHT22;14298;50.900;4.648;2023-02-11T04:49:56;6.90;97.10
26687;DHT22;14298;50.900;4.648;2023-02-11T04:52:25;6.90;97.10
26687;DHT22;14298;50.900;4.648;2023-02-11T04:54:53;6.90;97.10
26687;DHT22;14298;50.900;4.648;2023-02-11T04:57:22;6.80;97.10
26687;DHT22;14298;50.900;4.648;2023-02-11T04:59:50;6.80;97.10
26687;DHT22;14298;50.900;4.648;2023-02-11T05:02:18;6.80;97.10
26687;DHT22;14298;50.900;4.648;2023-02-11T05:04:46;6.80;97.10
26687;DHT22;14298;50.900;4.648;2023-02-11T05:07:15;6.90;97.10
26687;DHT22;14298;50.900;4.648;2023-02-11T05:09:43;6.90;97.10
26687;DHT22;14298;50.900;4.648;2023-02-11T05:12:11;6.90;97.10
26687;DHT22;14298;50.900;4.648;2023-02-11T05:14:40;6.90;97.10
26687;DHT22;14298;50.900;4.648;2023-02-11T05:17:08;6.90;97.10
26687;DHT22;14298;50.900;4.648;2023-02-11T05:19:36;6.90;97.10
26687;DHT22;14298;50.900;4.648;2023-02-11T05:22:05;6.90;97.10
26687;DHT22;14298;50.900;4.648;2023-02-11T05:24:34;6.90;97.10
26687;DHT22;14298;50.900;4.648;2023-02-11T05:27:02;6.90;97.10
26687;DHT22;14298;50.900;4.648;2023-02-11T05:29:30;6.90;97.10
26687;DHT22;14298;50.900;4.648;2023-02-11T05:31:59;6.90;97.10
26687;DHT22;14298;50.900;4.648;2023-02-11T05:34:27;6.90;97.10
26687;DHT22;14298;50.900;4.648;2023-02-11T05:36:55;6.90;97.10
26687;DHT22;14298;50.900;4.648;2023-02-11T05:39:24;6.90;97.10
26687;DHT22;14298;50.900;4.648;2023-02-11T05:41:52;6.90;97.10
26687;DHT22;14298;50.900;4.648;2023-02-11T05:44:20;6.90;97.10
26687;DHT22;14298;50.900;4.648;2023-02-11T05:46:49;6.80;97.10
26687;DHT22;14298;50.900;4.648;2023-02-11T05:49:17;6.90;97.10
26687;DHT22;14298;50.900;4.648;2023-02-11T05:51:45;6.90;97.10
26687;DHT22;14298;50.900;4.648;2023-02-11T05:54:15;6.90;97.10
26687;DHT22;14298;50.900;4.648;2023-02-11T05:56:45;6.90;97.10
26687;DHT22;14298;50.900;4.648;2023-02-11T05:59:14;6.90;97.10
26687;DHT22;14298;50.900;4.648;2023-02-11T06:01:42;6.90;97.10
26687;DHT22;14298;50.900;4.648;2023-02-11T06:04:11;6.90;97.10
26687;DHT22;14298;50.900;4.648;2023-02-11T06:06:39;6.90;97.10
26687;DHT22;14298;50.900;4.648;2023-02-11T06:09:09;6.90;97.10
26687;DHT22;14298;50.900;4.648;2023-02-11T06:11:38;6.90;97.10
26687;DHT22;14298;50.900;4.648;2023-02-11T06:14:06;6.90;97.10
26687;DHT22;14298;50.900;4.648;2023-02-11T06:16:36;7.00;97.10
26687;DHT22;14298;50.900;4.648;2023-02-11T06:19:05;6.90;97.10
26687;DHT22;14298;50.900;4.648;2023-02-11T06:21:33;7.00;97.10
26687;DHT22;14298;50.900;4.648;2023-02-11T06:24:01;6.90;97.10
26687;DHT22;14298;50.900;4.648;2023-02-11T06:26:30;6.90;97.10
26687;DHT22;14298;50.900;4.648;2023-02-11T06:29:01;6.90;97.10
26687;DHT22;14298;50.900;4.648;2023-02-11T06:31:30;6.90;97.10
26687;DHT22;14298;50.900;4.648;2023-02-11T06:33:58;7.00;97.10
26687;DHT22;14298;50.900;4.648;2023-02-11T06:36:29;7.00;97.10
26687;DHT22;14298;50.900;4.648;2023-02-11T06:38:58;7.00;97.10
26687;DHT22;14298;50.900;4.648;2023-02-11T06:41:26;7.00;97.10
26687;DHT22;14298;50.900;4.648;2023-02-11T06:43:54;7.00;97.10
26687;DHT22;14298;50.900;4.648;2023-02-11T06:46:23;7.00;97.10
26687;DHT22;14298;50.900;4.648;2023-02-11T06:48:51;7.10;97.10
26687;DHT22;14298;50.900;4.648;2023-02-11T06:51:19;7.10;97.10
26687;DHT22;14298;50.900;4.648;2023-02-11T06:54:07;7.10;97.10
26687;DHT22;14298;50.900;4.648;2023-02-11T06:56:37;7.10;97.10
26687;DHT22;14298;50.900;4.648;2023-02-11T06:59:05;7.10;97.10
26687;DHT22;14298;50.900;4.648;2023-02-11T07:01:37;7.10;97.10
26687;DHT22;14298;50.900;4.648;2023-02-11T07:04:05;7.00;97.10
26687;DHT22;14298;50.900;4.648;2023-02-11T07:06:34;7.00;97.10
26687;DHT22;14298;50.900;4.648;2023-02-11T07:09:23;7.00;97.10
26687;DHT22;14298;50.900;4.648;2023-02-11T07:11:51;7.00;97.10
26687;DHT22;14298;50.900;4.648;2023-02-11T07:14:20;7.00;97.10
26687;DHT22;14298;50.900;4.648;2023-02-11T07:16:48;7.00;97.10
26687;DHT22;14298;50.900;4.648;2023-02-11T07:19:16;7.10;97.10
26687;DHT22;14298;50.900;4.648;2023-02-11T07:21:45;7.10;97.10
26687;DHT22;14298;50.900;4.648;2023-02-11T07:24:14;7.10;97.10
26687;DHT22;14298;50.900;4.648;2023-02-11T07:26:43;7.10;97.10
26687;DHT22;14298;50.900;4.648;2023-02-11T07:29:11;7.10;97.10
26687;DHT22;14298;50.900;4.648;2023-02-11T07:31:39;7.10;97.10
26687;DHT22;14298;50.900;4.648;2023-02-11T07:34:09;7.10;97.10
26687;DHT22;14298;50.900;4.648;2023-02-11T07:36:41;7.10;97.10
26687;DHT22;14298;50.900;4.648;2023-02-11T07:39:09;7.20;97.10
26687;DHT22;14298;50.900;4.648;2023-02-11T07:41:37;7.20;97.10
26687;DHT22;14298;50.900;4.648;2023-02-11T07:44:06;7.20;97.10
26687;DHT22;14298;50.900;4.648;2023-02-11T07:46:35;7.20;97.10
26687;DHT22;14298;50.900;4.648;2023-02-11T07:49:03;7.20;97.10
26687;DHT22;14298;50.900;4.648;2023-02-11T07:51:31;7.30;97.10
26687;DHT22;14298;50.900;4.648;2023-02-11T07:54:00;7.30;97.10
26687;DHT22;14298;50.900;4.648;2023-02-11T07:56:29;7.30;97.10
26687;DHT22;14298;50.900;4.648;2023-02-11T07:59:02;7.40;97.10
26687;DHT22;14298;50.900;4.648;2023-02-11T08:01:31;7.40;97.10
26687;DHT22;14298;50.900;4.648;2023-02-11T08:04:18;7.40;97.10
26687;DHT22;14298;50.900;4.648;2023-02-11T08:06:46;7.40;97.10
26687;DHT22;14298;50.900;4.648;2023-02-11T08:09:15;7.40;97.10
26687;DHT22;14298;50.900;4.648;2023-02-11T08:11:44;7.40;97.10
26687;DHT22;14298;50.900;4.648;2023-02-11T08:14:12;7.50;97.10
26687;DHT22;14298;50.900;4.648;2023-02-11T08:16:41;7.50;97.10
26687;DHT22;14298;50.900;4.648;2023-02-11T08:19:14;7.50;97.10
26687;DHT22;14298;50.900;4.648;2023-02-11T08:21:44;7.50;97.10
26687;DHT22;14298;50.900;4.648;2023-02-11T08:24:13;7.50;97.10
26687;DHT22;14298;50.900;4.648;2023-02-11T08:26:42;7.50;97.10
26687;DHT22;14298;50.900;4.648;2023-02-11T08:29:13;7.60;97.10
26687;DHT22;14298;50.900;4.648;2023-02-11T08:31:45;7.60;97.10
26687;DHT22;14298;50.900;4.648;2023-02-11T08:34:14;7.60;97.10
26687;DHT22;14298;50.900;4.648;2023-02-11T08:36:45;7.70;97.10
26687;DHT22;14298;50.900;4.648;2023-02-11T08:39:16;7.70;97.10
26687;DHT22;14298;50.900;4.648;2023-02-11T08:42:03;7.70;97.10
26687;DHT22;14298;50.900;4.648;2023-02-11T08:44:31;7.70;97.10
26687;DHT22;14298;50.900;4.648;2023-02-11T08:47:01;7.70;97.10
26687;DHT22;14298;50.900;4.648;2023-02-11T08:49:30;7.60;97.10
26687;DHT22;14298;50.900;4.648;2023-02-11T08:52:00;7.70;97.10
26687;DHT22;14298;50.900;4.648;2023-02-11T08:54:30;7.70;97.10
26687;DHT22;14298;50.900;4.648;2023-02-11T08:56:59;7.70;97.10
26687;DHT22;14298;50.900;4.648;2023-02-11T08:59:28;7.80;97.10
26687;DHT22;14298;50.900;4.648;2023-02-11T09:01:56;7.80;97.10
26687;DHT22;14298;50.900;4.648;2023-02-11T09:04:24;7.80;97.10
26687;DHT22;14298;50.900;4.648;2023-02-11T09:06:53;7.80;97.10
26687;DHT22;14298;50.900;4.648;2023-02-11T09:09:21;7.80;97.10
26687;DHT22;14298;50.900;4.648;2023-02-11T09:11:49;7.80;97.10
26687;DHT22;14298;50.900;4.648;2023-02-11T09:14:20;7.80;97.10
26687;DHT22;14298;50.900;4.648;2023-02-11T09:16:50;7.80;97.10
26687;DHT22;14298;50.900;4.648;2023-02-11T09:19:19;7.80;97.10
26687;DHT22;14298;50.900;4.648;2023-02-11T09:21:49;7.80;97.10
26687;DHT22;14298;50.900;4.648;2023-02-11T09:24:17;7.90;97.10
26687;DHT22;14298;50.900;4.648;2023-02-11T09:26:49;7.90;97.10
26687;DHT22;14298;50.900;4.648;2023-02-11T09:29:15;8.00;97.10
26687;DHT22;14298;50.900;4.648;2023-02-11T09:31:44;7.90;97.10
26687;DHT22;14298;50.900;4.648;2023-02-11T09:34:12;7.90;97.10
26687;DHT22;14298;50.900;4.648;2023-02-11T09:36:42;7.90;97.10
26687;DHT22;14298;50.900;4.648;2023-02-11T09:39:14;8.00;97.10
26687;DHT22;14298;50.900;4.648;2023-02-11T09:44:31;8.00;97.10
26687;DHT22;14298;50.900;4.648;2023-02-11T09:47:05;8.10;97.10
26687;DHT22;14298;50.900;4.648;2023-02-11T09:49:46;8.10;97.10
26687;DHT22;14298;50.900;4.648;2023-02-11T09:55:00;8.10;97.10
26687;DHT22;14298;50.900;4.648;2023-02-11T09:57:50;8.10;97.10
26687;DHT22;14298;50.900;4.648;2023-02-11T10:00:36;8.10;97.10
26687;DHT22;14298;50.900;4.648;2023-02-11T10:03:36;8.10;97.10
26687;DHT22;14298;50.900;4.648;2023-02-11T10:06:14;8.20;97.10
26687;DHT22;14298;50.900;4.648;2023-02-11T10:11:39;8.40;97.10
26687;DHT22;14298;50.900;4.648;2023-02-11T10:20:13;8.40;97.10
26687;DHT22;14298;50.900;4.648;2023-02-11T10:22:57;8.50;97.10
26687;DHT22;14298;50.900;4.648;2023-02-11T10:25:32;8.50;97.10
26687;DHT22;14298;50.900;4.648;2023-02-11T10:27:59;8.60;97.10
26687;DHT22;14298;50.900;4.648;2023-02-11T10:30:36;8.70;97.10
26687;DHT22;14298;50.900;4.648;2023-02-11T10:33:19;8.80;97.10
26687;DHT22;14298;50.900;4.648;2023-02-11T10:35:47;8.80;97.10
26687;DHT22;14298;50.900;4.648;2023-02-11T10:38:16;8.80;97.10
26687;DHT22;14298;50.900;4.648;2023-02-11T10:40:46;8.90;97.10
26687;DHT22;14298;50.900;4.648;2023-02-11T10:43:16;8.80;97.10
26687;DHT22;14298;50.900;4.648;2023-02-11T10:46:05;8.80;97.10
26687;DHT22;14298;50.900;4.648;2023-02-11T10:48:44;8.80;97.10
26687;DHT22;14298;50.900;4.648;2023-02-11T10:56:46;8.90;97.10
26687;DHT22;14298;50.900;4.648;2023-02-11T10:59:36;8.90;97.10
26687;DHT22;14298;50.900;4.648;2023-02-11T11:02:26;9.00;97.10
26687;DHT22;14298;50.900;4.648;2023-02-11T11:04:56;9.00;97.10
26687;DHT22;14298;50.900;4.648;2023-02-11T11:07:28;8.90;97.10
26687;DHT22;14298;50.900;4.648;2023-02-11T11:10:07;8.90;97.10
26687;DHT22;14298;50.900;4.648;2023-02-11T11:12:45;8.90;97.10
26687;DHT22;14298;50.900;4.648;2023-02-11T11:15:26;8.90;97.10
26687;DHT22;14298;50.900;4.648;2023-02-11T11:20:52;9.00;97.10
26687;DHT22;14298;50.900;4.648;2023-02-11T11:23:18;9.10;97.10
26687;DHT22;14298;50.900;4.648;2023-02-11T11:26:07;9.10;97.10
26687;DHT22;14298;50.900;4.648;2023-02-11T11:31:23;9.10;97.10
26687;DHT22;14298;50.900;4.648;2023-02-11T11:33:54;9.20;97.10
26687;DHT22;14298;50.900;4.648;2023-02-11T11:36:43;9.10;97.10
26687;DHT22;14298;50.900;4.648;2023-02-11T11:39:22;9.20;97.10
26687;DHT22;14298;50.900;4.648;2023-02-11T11:41:51;9.20;97.10
26687;DHT22;14298;50.900;4.648;2023-02-11T11:44:29;9.20;97.10
26687;DHT22;14298;50.900;4.648;2023-02-11T11:50:09;9.20;97.10
26687;DHT22;14298;50.900;4.648;2023-02-11T11:52:40;9.20;97.10
26687;DHT22;14298;50.900;4.648;2023-02-11T11:55:26;9.10;97.10
26687;DHT22;14298;50.900;4.648;2023-02-11T11:57:55;9.10;97.10
26687;DHT22;14298;50.900;4.648;2023-02-11T12:00:28;9.20;97.10
26687;DHT22;14298;50.900;4.648;2023-02-11T12:16:56;9.50;97.10
26687;DHT22;14298;50.900;4.648;2023-02-11T12:20:02;9.50;97.10
26687;DHT22;14298;50.900;4.648;2023-02-11T12:25:39;9.50;97.10
26687;DHT22;14298;50.900;4.648;2023-02-11T12:28:28;9.60;97.10
26687;DHT22;14298;50.900;4.648;2023-02-11T12:39:53;9.80;97.10
26687;DHT22;14298;50.900;4.648;2023-02-11T12:42:29;9.70;97.10
26687;DHT22;14298;50.900;4.648;2023-02-11T12:45:16;9.70;97.10
26687;DHT22;14298;50.900;4.648;2023-02-11T12:50:51;9.60;97.10
26687;DHT22;14298;50.900;4.648;2023-02-11T12:55:59;9.50;97.10
26687;DHT22;14298;50.900;4.648;2023-02-11T12:58:30;9.50;97.10
26687;DHT22;14298;50.900;4.648;2023-02-11T13:01:25;9.50;97.10
26687;DHT22;14298;50.900;4.648;2023-02-11T13:03:52;9.50;97.10
26687;DHT22;14298;50.900;4.648;2023-02-11T13:06:27;9.50;97.10
26687;DHT22;14298;50.900;4.648;2023-02-11T13:09:00;9.60;97.10
26687;DHT22;14298;50.900;4.648;2023-02-11T13:11:38;9.60;97.10
26687;DHT22;14298;50.900;4.648;2023-02-11T13:14:16;9.70;97.10
26687;DHT22;14298;50.900;4.648;2023-02-11T13:16:45;9.70;97.10
26687;DHT22;14298;50.900;4.648;2023-02-11T13:19:36;9.70;97.10
26687;DHT22;14298;50.900;4.648;2023-02-11T13:25:22;9.80;97.10
26687;DHT22;14298;50.900;4.648;2023-02-11T13:30:41;9.80;97.10
26687;DHT22;14298;50.900;4.648;2023-02-11T13:33:41;9.80;97.10
26687;DHT22;14298;50.900;4.648;2023-02-11T13:38:28;9.90;97.10
26687;DHT22;14298;50.900;4.648;2023-02-11T13:47:01;9.90;97.10
26687;DHT22;14298;50.900;4.648;2023-02-11T13:49:36;9.80;97.10
26687;DHT22;14298;50.900;4.648;2023-02-11T13:52:21;9.60;97.10
26687;DHT22;14298;50.900;4.648;2023-02-11T13:54:49;9.60;97.10
26687;DHT22;14298;50.900;4.648;2023-02-11T13:57:21;9.60;97.10
26687;DHT22;14298;50.900;4.648;2023-02-11T14:00:00;9.60;97.10
26687;DHT22;14298;50.900;4.648;2023-02-11T14:02:32;9.60;97.10
26687;DHT22;14298;50.900;4.648;2023-02-11T14:05:32;9.70;97.10
26687;DHT22;14298;50.900;4.648;2023-02-11T14:08:21;9.60;97.10
26687;DHT22;14298;50.900;4.648;2023-02-11T14:11:40;9.60;97.10
26687;DHT22;14298;50.900;4.648;2023-02-11T14:16:21;9.60;97.10
26687;DHT22;14298;50.900;4.648;2023-02-11T14:21:30;9.70;97.10
26687;DHT22;14298;50.900;4.648;2023-02-11T14:32:52;9.70;97.10
26687;DHT22;14298;50.900;4.648;2023-02-11T14:35:38;9.60;97.10
26687;DHT22;14298;50.900;4.648;2023-02-11T14:41:00;9.60;97.10
26687;DHT22;14298;50.900;4.648;2023-02-11T14:43:34;9.60;97.10
26687;DHT22;14298;50.900;4.648;2023-02-11T14:46:00;9.60;97.10
26687;DHT22;14298;50.900;4.648;2023-02-11T14:48:36;9.60;97.10
26687;DHT22;14298;50.900;4.648;2023-02-11T14:51:19;9.70;97.10
26687;DHT22;14298;50.900;4.648;2023-02-11T14:53:52;9.70;97.10
26687;DHT22;14298;50.900;4.648;2023-02-11T14:56:24;9.80;97.10
26687;DHT22;14298;50.900;4.648;2023-02-11T14:58:54;9.80;97.10
26687;DHT22;14298;50.900;4.648;2023-02-11T15:01:39;9.80;97.10
26687;DHT22;14298;50.900;4.648;2023-02-11T15:04:04;9.70;97.10
26687;DHT22;14298;50.900;4.648;2023-02-11T15:06:38;9.70;97.10
26687;DHT22;14298;50.900;4.648;2023-02-11T15:09:54;9.70;97.10
26687;DHT22;14298;50.900;4.648;2023-02-11T15:11:40;9.70;97.10
26687;DHT22;14298;50.900;4.648;2023-02-11T15:14:29;9.60;97.10
26687;DHT22;14298;50.900;4.648;2023-02-11T15:17:04;9.60;97.10
26687;DHT22;14298;50.900;4.648;2023-02-11T15:19:35;9.60;97.10
26687;DHT22;14298;50.900;4.648;2023-02-11T15:22:07;9.60;97.10
26687;DHT22;14298;50.900;4.648;2023-02-11T15:24:37;9.60;97.10
26687;DHT22;14298;50.900;4.648;2023-02-11T15:27:12;9.60;97.10
26687;DHT22;14298;50.900;4.648;2023-02-11T15:29:46;9.50;97.10
26687;DHT22;14298;50.900;4.648;2023-02-11T15:32:19;9.50;97.10
26687;DHT22;14298;50.900;4.648;2023-02-11T15:34:50;9.50;97.10
26687;DHT22;14298;50.900;4.648;2023-02-11T15:37:27;9.50;97.10
26687;DHT22;14298;50.900;4.648;2023-02-11T15:40:11;9.50;97.10
26687;DHT22;14298;50.900;4.648;2023-02-11T15:42:43;9.40;97.10
26687;DHT22;14298;50.900;4.648;2023-02-11T15:45:21;9.30;97.10
26687;DHT22;14298;50.900;4.648;2023-02-11T15:48:06;9.40;97.10
26687;DHT22;14298;50.900;4.648;2023-02-11T15:50:37;9.40;97.10
26687;DHT22;14298;50.900;4.648;2023-02-11T15:53:28;9.40;97.10
26687;DHT22;14298;50.900;4.648;2023-02-11T15:56:06;9.30;97.10
26687;DHT22;14298;50.900;4.648;2023-02-11T15:58:28;9.30;97.10
26687;DHT22;14298;50.900;4.648;2023-02-11T16:00:56;9.30;97.10
26687;DHT22;14298;50.900;4.648;2023-02-11T16:03:33;9.30;97.10
26687;DHT22;14298;50.900;4.648;2023-02-11T16:06:39;9.30;97.10
26687;DHT22;14298;50.900;4.648;2023-02-11T16:11:36;9.30;97.10
26687;DHT22;14298;50.900;4.648;2023-02-11T16:17:11;9.30;97.10
26687;DHT22;14298;50.900;4.648;2023-02-11T16:19:47;9.20;97.10
26687;DHT22;14298;50.900;4.648;2023-02-11T16:22:25;9.10;97.10
26687;DHT22;14298;50.900;4.648;2023-02-11T16:24:57;9.10;97.10
26687;DHT22;14298;50.900;4.648;2023-02-11T16:27:38;9.10;97.10
26687;DHT22;14298;50.900;4.648;2023-02-11T16:30:03;9.10;97.10
26687;DHT22;14298;50.900;4.648;2023-02-11T16:32:32;9.10;97.10
26687;DHT22;14298;50.900;4.648;2023-02-11T16:35:01;9.10;97.10
26687;DHT22;14298;50.900;4.648;2023-02-11T16:37:36;9.10;97.10
26687;DHT22;14298;50.900;4.648;2023-02-11T16:40:01;9.00;97.10
26687;DHT22;14298;50.900;4.648;2023-02-11T16:42:30;9.00;97.10
26687;DHT22;14298;50.900;4.648;2023-02-11T16:44:58;9.00;97.10
26687;DHT22;14298;50.900;4.648;2023-02-11T16:47:27;9.00;97.10
26687;DHT22;14298;50.900;4.648;2023-02-11T16:49:57;9.00;97.10
26687;DHT22;14298;50.900;4.648;2023-02-11T16:52:26;9.00;97.10
26687;DHT22;14298;50.900;4.648;2023-02-11T16:54:57;8.90;97.10
26687;DHT22;14298;50.900;4.648;2023-02-11T16:57:25;8.90;97.10
26687;DHT22;14298;50.900;4.648;2023-02-11T16:59:54;8.90;97.10
26687;DHT22;14298;50.900;4.648;2023-02-11T17:02:24;8.90;97.10
26687;DHT22;14298;50.900;4.648;2023-02-11T17:04:55;8.90;97.10
26687;DHT22;14298;50.900;4.648;2023-02-11T17:07:24;8.90;97.10
26687;DHT22;14298;50.900;4.648;2023-02-11T17:09:53;8.90;97.10
26687;DHT22;14298;50.900;4.648;2023-02-11T17:12:21;8.80;97.10
26687;DHT22;14298;50.900;4.648;2023-02-11T17:14:53;8.80;97.10
26687;DHT22;14298;50.900;4.648;2023-02-11T17:17:22;8.70;97.10
26687;DHT22;14298;50.900;4.648;2023-02-11T17:19:50;8.70;97.10
26687;DHT22;14298;50.900;4.648;2023-02-11T17:22:18;8.70;97.10
26687;DHT22;14298;50.900;4.648;2023-02-11T17:24:47;8.70;97.10
26687;DHT22;14298;50.900;4.648;2023-02-11T17:27:15;8.70;97.10
26687;DHT22;14298;50.900;4.648;2023-02-11T17:29:44;8.60;97.10
26687;DHT22;14298;50.900;4.648;2023-02-11T17:32:12;8.70;97.10
26687;DHT22;14298;50.900;4.648;2023-02-11T17:34:40;8.60;97.10
26687;DHT22;14298;50.900;4.648;2023-02-11T17:37:09;8.60;97.10
26687;DHT22;14298;50.900;4.648;2023-02-11T17:39:38;8.70;97.10
26687;DHT22;14298;50.900;4.648;2023-02-11T17:42:06;8.70;97.10
26687;DHT22;14298;50.900;4.648;2023-02-11T17:44:35;8.70;97.10
26687;DHT22;14298;50.900;4.648;2023-02-11T17:47:03;8.70;97.10
26687;DHT22;14298;50.900;4.648;2023-02-11T17:49:32;8.60;97.10
26687;DHT22;14298;50.900;4.648;2023-02-11T17:52:00;8.70;97.10
26687;DHT22;14298;50.900;4.648;2023-02-11T17:54:29;8.70;97.10
26687;DHT22;14298;50.900;4.648;2023-02-11T17:56:57;8.70;97.10
26687;DHT22;14298;50.900;4.648;2023-02-11T17:59:26;8.70;97.10
26687;DHT22;14298;50.900;4.648;2023-02-11T18:01:55;8.60;97.10
26687;DHT22;14298;50.900;4.648;2023-02-11T18:04:24;8.60;97.10
26687;DHT22;14298;50.900;4.648;2023-02-11T18:06:53;8.60;97.10
26687;DHT22;14298;50.900;4.648;2023-02-11T18:09:24;8.60;97.10
26687;DHT22;14298;50.900;4.648;2023-02-11T18:11:59;8.60;97.10
26687;DHT22;14298;50.900;4.648;2023-02-11T18:14:24;8.50;97.10
26687;DHT22;14298;50.900;4.648;2023-02-11T18:16:54;8.60;97.10
26687;DHT22;14298;50.900;4.648;2023-02-11T18:19:23;8.60;97.10
26687;DHT22;14298;50.900;4.648;2023-02-11T18:21:51;8.60;97.10
26687;DHT22;14298;50.900;4.648;2023-02-11T18:24:20;8.60;97.10
26687;DHT22;14298;50.900;4.648;2023-02-11T18:26:48;8.60;97.10
26687;DHT22;14298;50.900;4.648;2023-02-11T18:29:16;8.60;97.10